sensor_id;sensor_type;location;lat;lon;timestamp;P1;durP1;ratioP1;P2;durP2;ratioP2
35592;SDS011;64447;52.140;5.602;2023-04-03T00:05:20;2.17;;;1.75;;
35592;SDS011;64447;52.140;5.602;2023-04-03T00:07:45;1.95;;;1.60;;
35592;SDS011;64447;52.140;5.602;2023-04-03T00:10:11;2.58;;;1.77;;
35592;SDS011;64447;52.140;5.602;2023-04-03T00:12:37;3.75;;;2.10;;
35592;SDS011;64447;52.140;5.602;2023-04-03T00:15:03;5.57;;;1.80;;
35592;SDS011;64447;52.140;5.602;2023-04-03T00:17:29;5.30;;;2.25;;
35592;SDS011;64447;52.140;5.602;2023-04-03T00:19:54;3.75;;;2.13;;
35592;SDS011;64447;52.140;5.602;2023-04-03T00:22:20;4.70;;;2.28;;
35592;SDS011;64447;52.140;5.602;2023-04-03T00:24:45;5.28;;;2.47;;
35592;SDS011;64447;52.140;5.602;2023-04-03T00:27:11;3.30;;;1.50;;
35592;SDS011;64447;52.140;5.602;2023-04-03T00:29:36;3.58;;;1.95;;
35592;SDS011;64447;52.140;5.602;2023-04-03T00:35:24;2.70;;;1.80;;
35592;SDS011;64447;52.140;5.602;2023-04-03T00:37:50;3.60;;;2.28;;
35592;SDS011;64447;52.140;5.602;2023-04-03T00:40:17;2.85;;;1.90;;
35592;SDS011;64447;52.140;5.602;2023-04-03T00:42:43;3.13;;;1.90;;
35592;SDS011;64447;52.140;5.602;2023-04-03T00:47:36;2.80;;;2.00;;
35592;SDS011;64447;52.140;5.602;2023-04-03T00:50:04;2.80;;;1.55;;
35592;SDS011;64447;52.140;5.602;2023-04-03T00:52:30;5.50;;;1.90;;
35592;SDS011;64447;52.140;5.602;2023-04-03T00:55:00;3.50;;;2.08;;
35592;SDS011;64447;52.140;5.602;2023-04-03T00:57:29;4.13;;;2.15;;
35592;SDS011;64447;52.140;5.602;2023-04-03T01:00:03;2.47;;;1.98;;
35592;SDS011;64447;52.140;5.602;2023-04-03T01:05:54;3.63;;;1.75;;
35592;SDS011;64447;52.140;5.602;2023-04-03T01:08:19;3.97;;;1.95;;
35592;SDS011;64447;52.140;5.602;2023-04-03T01:10:45;3.90;;;2.08;;
35592;SDS011;64447;52.140;5.602;2023-04-03T01:13:18;2.75;;;1.80;;
35592;SDS011;64447;52.140;5.602;2023-04-03T01:15:54;3.65;;;2.10;;
35592;SDS011;64447;52.140;5.602;2023-04-03T01:18:21;3.17;;;2.08;;
35592;SDS011;64447;52.140;5.602;2023-04-03T01:23:36;3.35;;;2.30;;
35592;SDS011;64447;52.140;5.602;2023-04-03T01:26:25;3.20;;;2.05;;
35592;SDS011;64447;52.140;5.602;2023-04-03T01:28:51;4.13;;;2.30;;
35592;SDS011;64447;52.140;5.602;2023-04-03T01:34:05;4.70;;;2.25;;
35592;SDS011;64447;52.140;5.602;2023-04-03T01:36:30;3.35;;;1.92;;
35592;SDS011;64447;52.140;5.602;2023-04-03T01:38:57;3.78;;;1.90;;
35592;SDS011;64447;52.140;5.602;2023-04-03T01:41:24;4.72;;;2.20;;
35592;SDS011;64447;52.140;5.602;2023-04-03T01:43:50;2.83;;;2.28;;
35592;SDS011;64447;52.140;5.602;2023-04-03T01:46:16;2.95;;;2.03;;
35592;SDS011;64447;52.140;5.602;2023-04-03T01:48:42;3.78;;;2.65;;
35592;SDS011;64447;52.140;5.602;2023-04-03T01:51:08;5.10;;;2.20;;
35592;SDS011;64447;52.140;5.602;2023-04-03T01:53:34;3.90;;;1.88;;
35592;SDS011;64447;52.140;5.602;2023-04-03T01:55:59;5.20;;;2.35;;
35592;SDS011;64447;52.140;5.602;2023-04-03T01:58:25;5.80;;;2.13;;
35592;SDS011;64447;52.140;5.602;2023-04-03T02:00:51;4.60;;;1.98;;
35592;SDS011;64447;52.140;5.602;2023-04-03T02:03:17;3.92;;;2.20;;
35592;SDS011;64447;52.140;5.602;2023-04-03T02:05:43;2.90;;;2.00;;
35592;SDS011;64447;52.140;5.602;2023-04-03T02:08:09;4.50;;;2.00;;
35592;SDS011;64447;52.140;5.602;2023-04-03T02:10:35;3.33;;;2.28;;
35592;SDS011;64447;52.140;5.602;2023-04-03T02:13:01;4.18;;;2.53;;
35592;SDS011;64447;52.140;5.602;2023-04-03T02:15:27;3.17;;;2.00;;
35592;SDS011;64447;52.140;5.602;2023-04-03T02:21:14;6.25;;;2.30;;
35592;SDS011;64447;52.140;5.602;2023-04-03T02:23:40;6.22;;;2.60;;
35592;SDS011;64447;52.140;5.602;2023-04-03T02:26:07;2.65;;;2.03;;
35592;SDS011;64447;52.140;5.602;2023-04-03T02:28:37;5.68;;;2.40;;
35592;SDS011;64447;52.140;5.602;2023-04-03T02:31:03;6.07;;;2.40;;
35592;SDS011;64447;52.140;5.602;2023-04-03T02:33:31;6.28;;;2.70;;
35592;SDS011;64447;52.140;5.602;2023-04-03T02:35:57;6.22;;;3.03;;
35592;SDS011;64447;52.140;5.602;2023-04-03T02:38:23;4.80;;;2.42;;
35592;SDS011;64447;52.140;5.602;2023-04-03T02:40:49;3.15;;;2.13;;
35592;SDS011;64447;52.140;5.602;2023-04-03T02:43:16;5.68;;;2.25;;
35592;SDS011;64447;52.140;5.602;2023-04-03T02:45:41;4.60;;;2.45;;
35592;SDS011;64447;52.140;5.602;2023-04-03T02:48:07;6.30;;;3.28;;
35592;SDS011;64447;52.140;5.602;2023-04-03T02:50:33;5.38;;;2.90;;
35592;SDS011;64447;52.140;5.602;2023-04-03T02:52:58;4.85;;;2.40;;
35592;SDS011;64447;52.140;5.602;2023-04-03T02:55:24;3.67;;;2.45;;
35592;SDS011;64447;52.140;5.602;2023-04-03T02:57:50;5.45;;;2.35;;
35592;SDS011;64447;52.140;5.602;2023-04-03T03:00:15;4.82;;;3.00;;
35592;SDS011;64447;52.140;5.602;2023-04-03T03:06:07;6.20;;;2.97;;
35592;SDS011;64447;52.140;5.602;2023-04-03T03:08:35;6.18;;;2.60;;
35592;SDS011;64447;52.140;5.602;2023-04-03T03:11:01;7.07;;;2.50;;
35592;SDS011;64447;52.140;5.602;2023-04-03T03:13:27;5.43;;;2.97;;
35592;SDS011;64447;52.140;5.602;2023-04-03T03:15:53;4.88;;;2.60;;
35592;SDS011;64447;52.140;5.602;2023-04-03T03:18:19;5.20;;;3.00;;
35592;SDS011;64447;52.140;5.602;2023-04-03T03:20:44;6.53;;;2.60;;
35592;SDS011;64447;52.140;5.602;2023-04-03T03:23:10;6.43;;;2.63;;
35592;SDS011;64447;52.140;5.602;2023-04-03T03:25:39;7.18;;;2.70;;
35592;SDS011;64447;52.140;5.602;2023-04-03T03:28:05;5.03;;;3.03;;
35592;SDS011;64447;52.140;5.602;2023-04-03T03:30:31;3.97;;;2.67;;
35592;SDS011;64447;52.140;5.602;2023-04-03T03:36:19;6.55;;;2.58;;
35592;SDS011;64447;52.140;5.602;2023-04-03T03:38:45;5.90;;;2.72;;
35592;SDS011;64447;52.140;5.602;2023-04-03T03:41:11;6.32;;;2.63;;
35592;SDS011;64447;52.140;5.602;2023-04-03T03:43:36;7.38;;;3.20;;
35592;SDS011;64447;52.140;5.602;2023-04-03T03:46:02;5.25;;;2.67;;
35592;SDS011;64447;52.140;5.602;2023-04-03T03:48:27;3.25;;;2.17;;
35592;SDS011;64447;52.140;5.602;2023-04-03T03:50:53;4.95;;;2.97;;
35592;SDS011;64447;52.140;5.602;2023-04-03T03:53:18;6.70;;;2.60;;
35592;SDS011;64447;52.140;5.602;2023-04-03T03:55:44;4.75;;;2.53;;
35592;SDS011;64447;52.140;5.602;2023-04-03T03:58:10;5.30;;;3.00;;
35592;SDS011;64447;52.140;5.602;2023-04-03T04:00:35;4.38;;;2.55;;
35592;SDS011;64447;52.140;5.602;2023-04-03T04:06:23;4.32;;;2.25;;
35592;SDS011;64447;52.140;5.602;2023-04-03T04:08:49;5.28;;;2.78;;
35592;SDS011;64447;52.140;5.602;2023-04-03T04:11:14;7.90;;;3.15;;
35592;SDS011;64447;52.140;5.602;2023-04-03T04:13:40;5.47;;;3.00;;
35592;SDS011;64447;52.140;5.602;2023-04-03T04:16:06;5.53;;;2.60;;
35592;SDS011;64447;52.140;5.602;2023-04-03T04:18:32;5.47;;;3.60;;
35592;SDS011;64447;52.140;5.602;2023-04-03T04:20:58;5.68;;;2.50;;
35592;SDS011;64447;52.140;5.602;2023-04-03T04:23:23;5.15;;;2.95;;
35592;SDS011;64447;52.140;5.602;2023-04-03T04:25:49;7.35;;;3.25;;
35592;SDS011;64447;52.140;5.602;2023-04-03T04:28:15;5.95;;;2.65;;
35592;SDS011;64447;52.140;5.602;2023-04-03T04:30:41;6.35;;;3.55;;
35592;SDS011;64447;52.140;5.602;2023-04-03T04:36:29;9.05;;;3.20;;
35592;SDS011;64447;52.140;5.602;2023-04-03T04:38:54;5.50;;;2.85;;
35592;SDS011;64447;52.140;5.602;2023-04-03T04:41:20;7.95;;;3.90;;
35592;SDS011;64447;52.140;5.602;2023-04-03T04:43:50;6.90;;;3.17;;
35592;SDS011;64447;52.140;5.602;2023-04-03T04:46:16;4.57;;;2.47;;
35592;SDS011;64447;52.140;5.602;2023-04-03T04:48:42;8.32;;;3.33;;
35592;SDS011;64447;52.140;5.602;2023-04-03T04:51:07;9.40;;;3.13;;
35592;SDS011;64447;52.140;5.602;2023-04-03T04:53:33;8.80;;;3.38;;
35592;SDS011;64447;52.140;5.602;2023-04-03T04:55:59;7.82;;;3.47;;
35592;SDS011;64447;52.140;5.602;2023-04-03T04:58:25;6.00;;;3.17;;
35592;SDS011;64447;52.140;5.602;2023-04-03T05:00:58;6.20;;;3.33;;
35592;SDS011;64447;52.140;5.602;2023-04-03T05:06:47;5.10;;;2.75;;
35592;SDS011;64447;52.140;5.602;2023-04-03T05:09:12;5.15;;;2.55;;
35592;SDS011;64447;52.140;5.602;2023-04-03T05:11:38;6.80;;;3.30;;
35592;SDS011;64447;52.140;5.602;2023-04-03T05:14:03;5.32;;;3.05;;
35592;SDS011;64447;52.140;5.602;2023-04-03T05:16:31;7.95;;;3.38;;
35592;SDS011;64447;52.140;5.602;2023-04-03T05:18:57;5.95;;;2.92;;
35592;SDS011;64447;52.140;5.602;2023-04-03T05:21:23;7.97;;;3.67;;
35592;SDS011;64447;52.140;5.602;2023-04-03T05:23:52;7.30;;;3.13;;
35592;SDS011;64447;52.140;5.602;2023-04-03T05:26:17;3.38;;;2.65;;
35592;SDS011;64447;52.140;5.602;2023-04-03T05:28:43;4.13;;;2.67;;
35592;SDS011;64447;52.140;5.602;2023-04-03T05:31:08;6.53;;;3.03;;
35592;SDS011;64447;52.140;5.602;2023-04-03T05:36:56;6.95;;;3.53;;
35592;SDS011;64447;52.140;5.602;2023-04-03T05:39:22;6.78;;;3.10;;
35592;SDS011;64447;52.140;5.602;2023-04-03T05:41:48;5.82;;;3.55;;
35592;SDS011;64447;52.140;5.602;2023-04-03T05:44:14;7.13;;;3.33;;
35592;SDS011;64447;52.140;5.602;2023-04-03T05:46:39;6.25;;;3.13;;
35592;SDS011;64447;52.140;5.602;2023-04-03T05:49:05;7.57;;;3.20;;
35592;SDS011;64447;52.140;5.602;2023-04-03T05:51:33;7.20;;;3.20;;
35592;SDS011;64447;52.140;5.602;2023-04-03T05:54:06;10.45;;;3.45;;
35592;SDS011;64447;52.140;5.602;2023-04-03T05:56:40;4.70;;;3.08;;
35592;SDS011;64447;52.140;5.602;2023-04-03T05:59:06;4.05;;;2.70;;
35592;SDS011;64447;52.140;5.602;2023-04-03T06:01:32;8.93;;;3.30;;
35592;SDS011;64447;52.140;5.602;2023-04-03T06:03:59;7.03;;;2.90;;
35592;SDS011;64447;52.140;5.602;2023-04-03T06:06:24;7.18;;;3.15;;
35592;SDS011;64447;52.140;5.602;2023-04-03T06:08:50;7.82;;;3.33;;
35592;SDS011;64447;52.140;5.602;2023-04-03T06:11:16;9.23;;;3.25;;
35592;SDS011;64447;52.140;5.602;2023-04-03T06:13:42;8.18;;;3.22;;
35592;SDS011;64447;52.140;5.602;2023-04-03T06:16:09;9.00;;;3.10;;
35592;SDS011;64447;52.140;5.602;2023-04-03T06:22:01;6.47;;;3.30;;
35592;SDS011;64447;52.140;5.602;2023-04-03T06:24:28;8.15;;;3.13;;
35592;SDS011;64447;52.140;5.602;2023-04-03T06:26:54;5.82;;;3.05;;
35592;SDS011;64447;52.140;5.602;2023-04-03T06:29:20;8.95;;;3.22;;
35592;SDS011;64447;52.140;5.602;2023-04-03T06:31:46;7.65;;;3.85;;
35592;SDS011;64447;52.140;5.602;2023-04-03T06:34:12;5.40;;;2.90;;
35592;SDS011;64447;52.140;5.602;2023-04-03T06:36:38;7.82;;;3.38;;
35592;SDS011;64447;52.140;5.602;2023-04-03T06:39:04;7.03;;;3.40;;
35592;SDS011;64447;52.140;5.602;2023-04-03T06:41:30;4.80;;;3.05;;
35592;SDS011;64447;52.140;5.602;2023-04-03T06:43:56;5.95;;;3.03;;
35592;SDS011;64447;52.140;5.602;2023-04-03T06:46:23;5.95;;;3.03;;
35592;SDS011;64447;52.140;5.602;2023-04-03T06:52:11;6.63;;;2.78;;
35592;SDS011;64447;52.140;5.602;2023-04-03T06:54:38;6.80;;;3.67;;
35592;SDS011;64447;52.140;5.602;2023-04-03T06:57:04;7.82;;;3.22;;
35592;SDS011;64447;52.140;5.602;2023-04-03T06:59:30;7.57;;;3.15;;
35592;SDS011;64447;52.140;5.602;2023-04-03T07:01:56;6.30;;;3.20;;
35592;SDS011;64447;52.140;5.602;2023-04-03T07:04:23;6.20;;;2.67;;
35592;SDS011;64447;52.140;5.602;2023-04-03T07:06:49;6.72;;;2.38;;
35592;SDS011;64447;52.140;5.602;2023-04-03T07:09:15;5.63;;;2.83;;
35592;SDS011;64447;52.140;5.602;2023-04-03T07:11:41;5.50;;;2.85;;
35592;SDS011;64447;52.140;5.602;2023-04-03T07:14:06;6.32;;;3.08;;
35592;SDS011;64447;52.140;5.602;2023-04-03T07:16:33;7.80;;;3.28;;
35592;SDS011;64447;52.140;5.602;2023-04-03T07:22:21;6.88;;;2.67;;
35592;SDS011;64447;52.140;5.602;2023-04-03T07:24:47;7.43;;;2.70;;
35592;SDS011;64447;52.140;5.602;2023-04-03T07:27:12;5.35;;;2.55;;
35592;SDS011;64447;52.140;5.602;2023-04-03T07:29:38;4.20;;;2.40;;
35592;SDS011;64447;52.140;5.602;2023-04-03T07:32:04;6.10;;;2.92;;
35592;SDS011;64447;52.140;5.602;2023-04-03T07:34:30;6.40;;;2.40;;
35592;SDS011;64447;52.140;5.602;2023-04-03T07:36:57;5.00;;;2.78;;
35592;SDS011;64447;52.140;5.602;2023-04-03T07:39:23;9.07;;;3.10;;
35592;SDS011;64447;52.140;5.602;2023-04-03T07:41:49;7.43;;;2.67;;
35592;SDS011;64447;52.140;5.602;2023-04-03T07:44:14;5.10;;;2.22;;
35592;SDS011;64447;52.140;5.602;2023-04-03T07:46:40;7.28;;;2.85;;
35592;SDS011;64447;52.140;5.602;2023-04-03T07:52:29;4.05;;;2.30;;
35592;SDS011;64447;52.140;5.602;2023-04-03T07:54:55;4.30;;;1.83;;
35592;SDS011;64447;52.140;5.602;2023-04-03T07:57:20;5.47;;;2.30;;
35592;SDS011;64447;52.140;5.602;2023-04-03T07:59:46;5.93;;;2.00;;
35592;SDS011;64447;52.140;5.602;2023-04-03T08:02:11;3.42;;;1.65;;
35592;SDS011;64447;52.140;5.602;2023-04-03T08:04:37;7.22;;;2.30;;
35592;SDS011;64447;52.140;5.602;2023-04-03T08:07:03;6.20;;;2.15;;
35592;SDS011;64447;52.140;5.602;2023-04-03T08:09:29;4.90;;;1.95;;
35592;SDS011;64447;52.140;5.602;2023-04-03T08:11:56;3.65;;;1.85;;
35592;SDS011;64447;52.140;5.602;2023-04-03T08:14:22;3.67;;;2.05;;
35592;SDS011;64447;52.140;5.602;2023-04-03T08:16:48;5.32;;;2.22;;
35592;SDS011;64447;52.140;5.602;2023-04-03T08:22:38;2.95;;;1.70;;
35592;SDS011;64447;52.140;5.602;2023-04-03T08:25:04;2.88;;;1.88;;
35592;SDS011;64447;52.140;5.602;2023-04-03T08:27:30;3.42;;;1.50;;
35592;SDS011;64447;52.140;5.602;2023-04-03T08:29:56;3.15;;;1.50;;
35592;SDS011;64447;52.140;5.602;2023-04-03T08:32:22;3.17;;;1.52;;
35592;SDS011;64447;52.140;5.602;2023-04-03T08:34:48;3.53;;;1.25;;
35592;SDS011;64447;52.140;5.602;2023-04-03T08:37:14;2.03;;;0.95;;
35592;SDS011;64447;52.140;5.602;2023-04-03T08:39:41;6.40;;;1.60;;
35592;SDS011;64447;52.140;5.602;2023-04-03T08:42:15;2.97;;;1.42;;
35592;SDS011;64447;52.140;5.602;2023-04-03T08:45:01;3.13;;;1.25;;
35592;SDS011;64447;52.140;5.602;2023-04-03T08:47:48;4.82;;;1.33;;
35592;SDS011;64447;52.140;5.602;2023-04-03T08:50:19;2.40;;;1.33;;
35592;SDS011;64447;52.140;5.602;2023-04-03T08:52:51;1.48;;;0.73;;
35592;SDS011;64447;52.140;5.602;2023-04-03T08:57:51;1.70;;;0.70;;
35592;SDS011;64447;52.140;5.602;2023-04-03T09:00:23;2.03;;;0.90;;
35592;SDS011;64447;52.140;5.602;2023-04-03T09:02:50;1.52;;;0.80;;
35592;SDS011;64447;52.140;5.602;2023-04-03T09:05:20;1.33;;;0.90;;
35592;SDS011;64447;52.140;5.602;2023-04-03T09:07:58;2.05;;;1.10;;
35592;SDS011;64447;52.140;5.602;2023-04-03T09:10:29;1.75;;;0.90;;
35592;SDS011;64447;52.140;5.602;2023-04-03T09:15:46;2.45;;;0.90;;
35592;SDS011;64447;52.140;5.602;2023-04-03T09:18:16;2.83;;;0.93;;
35592;SDS011;64447;52.140;5.602;2023-04-03T09:23:25;2.80;;;0.80;;
35592;SDS011;64447;52.140;5.602;2023-04-03T09:25:53;0.90;;;0.80;;
35592;SDS011;64447;52.140;5.602;2023-04-03T09:28:22;1.00;;;0.80;;
35592;SDS011;64447;52.140;5.602;2023-04-03T09:30:48;1.95;;;0.90;;
35592;SDS011;64447;52.140;5.602;2023-04-03T09:33:14;1.85;;;0.70;;
35592;SDS011;64447;52.140;5.602;2023-04-03T09:35:41;1.08;;;0.80;;
35592;SDS011;64447;52.140;5.602;2023-04-03T09:40:37;1.58;;;0.90;;
35592;SDS011;64447;52.140;5.602;2023-04-03T09:45:41;1.73;;;0.85;;
35592;SDS011;64447;52.140;5.602;2023-04-03T09:48:13;1.88;;;0.65;;
35592;SDS011;64447;52.140;5.602;2023-04-03T09:55:54;1.88;;;0.80;;
35592;SDS011;64447;52.140;5.602;2023-04-03T09:58:31;1.27;;;0.95;;
35592;SDS011;64447;52.140;5.602;2023-04-03T10:00:59;2.13;;;0.65;;
35592;SDS011;64447;52.140;5.602;2023-04-03T10:03:30;1.05;;;0.70;;
35592;SDS011;64447;52.140;5.602;2023-04-03T10:05:57;1.65;;;0.77;;
35592;SDS011;64447;52.140;5.602;2023-04-03T10:08:25;1.83;;;0.77;;
35592;SDS011;64447;52.140;5.602;2023-04-03T10:11:11;0.95;;;0.60;;
35592;SDS011;64447;52.140;5.602;2023-04-03T10:16:41;0.73;;;0.65;;
35592;SDS011;64447;52.140;5.602;2023-04-03T10:19:44;1.25;;;0.80;;
35592;SDS011;64447;52.140;5.602;2023-04-03T10:22:15;0.85;;;0.85;;
35592;SDS011;64447;52.140;5.602;2023-04-03T10:24:52;0.82;;;0.60;;
35592;SDS011;64447;52.140;5.602;2023-04-03T10:27:24;1.00;;;0.90;;
35592;SDS011;64447;52.140;5.602;2023-04-03T10:35:59;3.30;;;0.93;;
35592;SDS011;64447;52.140;5.602;2023-04-03T10:38:33;1.25;;;0.70;;
35592;SDS011;64447;52.140;5.602;2023-04-03T10:44:00;1.50;;;0.70;;
35592;SDS011;64447;52.140;5.602;2023-04-03T10:46:38;1.13;;;0.63;;
35592;SDS011;64447;52.140;5.602;2023-04-03T10:55:09;3.47;;;0.95;;
35592;SDS011;64447;52.140;5.602;2023-04-03T10:57:39;1.42;;;1.00;;
35592;SDS011;64447;52.140;5.602;2023-04-03T11:00:30;2.05;;;1.05;;
35592;SDS011;64447;52.140;5.602;2023-04-03T11:03:03;3.95;;;1.10;;
35592;SDS011;64447;52.140;5.602;2023-04-03T11:07:57;1.95;;;0.90;;
35592;SDS011;64447;52.140;5.602;2023-04-03T11:10:37;1.60;;;0.77;;
35592;SDS011;64447;52.140;5.602;2023-04-03T11:15:35;0.88;;;0.65;;
35592;SDS011;64447;52.140;5.602;2023-04-03T11:18:06;2.55;;;0.98;;
35592;SDS011;64447;52.140;5.602;2023-04-03T11:20:35;2.05;;;1.00;;
35592;SDS011;64447;52.140;5.602;2023-04-03T11:23:03;3.42;;;1.30;;
35592;SDS011;64447;52.140;5.602;2023-04-03T11:25:34;1.75;;;0.85;;
35592;SDS011;64447;52.140;5.602;2023-04-03T11:28:02;2.22;;;1.00;;
35592;SDS011;64447;52.140;5.602;2023-04-03T11:35:56;2.08;;;1.02;;
35592;SDS011;64447;52.140;5.602;2023-04-03T11:38:24;2.05;;;0.90;;
35592;SDS011;64447;52.140;5.602;2023-04-03T11:40:51;3.17;;;0.80;;
35592;SDS011;64447;52.140;5.602;2023-04-03T11:43:28;2.05;;;1.17;;
35592;SDS011;64447;52.140;5.602;2023-04-03T11:45:56;1.95;;;0.95;;
35592;SDS011;64447;52.140;5.602;2023-04-03T11:50:53;2.50;;;1.00;;
35592;SDS011;64447;52.140;5.602;2023-04-03T11:53:35;1.20;;;0.90;;
35592;SDS011;64447;52.140;5.602;2023-04-03T11:56:03;1.58;;;0.98;;
35592;SDS011;64447;52.140;5.602;2023-04-03T12:00:56;2.72;;;0.98;;
35592;SDS011;64447;52.140;5.602;2023-04-03T12:05:49;2.33;;;1.00;;
35592;SDS011;64447;52.140;5.602;2023-04-03T12:08:21;1.25;;;0.93;;
35592;SDS011;64447;52.140;5.602;2023-04-03T12:16:19;2.00;;;1.13;;
35592;SDS011;64447;52.140;5.602;2023-04-03T12:21:16;3.25;;;1.15;;
35592;SDS011;64447;52.140;5.602;2023-04-03T12:23:57;1.83;;;1.10;;
35592;SDS011;64447;52.140;5.602;2023-04-03T12:26:27;4.80;;;1.20;;
35592;SDS011;64447;52.140;5.602;2023-04-03T12:28:54;1.98;;;1.20;;
35592;SDS011;64447;52.140;5.602;2023-04-03T12:31:22;1.63;;;1.10;;
35592;SDS011;64447;52.140;5.602;2023-04-03T12:36:36;3.35;;;1.50;;
35592;SDS011;64447;52.140;5.602;2023-04-03T12:39:13;4.00;;;1.23;;
35592;SDS011;64447;52.140;5.602;2023-04-03T12:41:49;1.90;;;1.00;;
35592;SDS011;64447;52.140;5.602;2023-04-03T12:44:36;3.38;;;1.20;;
35592;SDS011;64447;52.140;5.602;2023-04-03T12:47:07;2.47;;;1.13;;
35592;SDS011;64447;52.140;5.602;2023-04-03T12:49:38;2.45;;;0.93;;
35592;SDS011;64447;52.140;5.602;2023-04-03T12:52:05;4.68;;;1.38;;
35592;SDS011;64447;52.140;5.602;2023-04-03T12:54:39;2.05;;;1.30;;
35592;SDS011;64447;52.140;5.602;2023-04-03T12:59:43;3.45;;;1.10;;
35592;SDS011;64447;52.140;5.602;2023-04-03T13:04:43;1.75;;;0.90;;
35592;SDS011;64447;52.140;5.602;2023-04-03T13:09:57;1.65;;;1.10;;
35592;SDS011;64447;52.140;5.602;2023-04-03T13:12:24;1.35;;;1.00;;
35592;SDS011;64447;52.140;5.602;2023-04-03T13:14:52;2.30;;;1.30;;
35592;SDS011;64447;52.140;5.602;2023-04-03T13:17:18;2.55;;;1.00;;
35592;SDS011;64447;52.140;5.602;2023-04-03T13:19:46;2.30;;;1.40;;
35592;SDS011;64447;52.140;5.602;2023-04-03T13:24:44;5.10;;;1.35;;
35592;SDS011;64447;52.140;5.602;2023-04-03T13:27:12;1.17;;;0.95;;
35592;SDS011;64447;52.140;5.602;2023-04-03T13:29:38;2.03;;;1.17;;
35592;SDS011;64447;52.140;5.602;2023-04-03T13:32:05;3.40;;;1.67;;
35592;SDS011;64447;52.140;5.602;2023-04-03T13:34:36;2.88;;;1.40;;
35592;SDS011;64447;52.140;5.602;2023-04-03T13:37:02;2.83;;;1.33;;
35592;SDS011;64447;52.140;5.602;2023-04-03T13:39:33;2.25;;;1.20;;
35592;SDS011;64447;52.140;5.602;2023-04-03T13:42:00;3.30;;;1.27;;
35592;SDS011;64447;52.140;5.602;2023-04-03T13:44:34;3.55;;;1.30;;
35592;SDS011;64447;52.140;5.602;2023-04-03T13:51:59;3.58;;;1.20;;
35592;SDS011;64447;52.140;5.602;2023-04-03T13:54:30;1.90;;;1.35;;
35592;SDS011;64447;52.140;5.602;2023-04-03T13:56:58;2.90;;;1.70;;
35592;SDS011;64447;52.140;5.602;2023-04-03T13:59:28;3.47;;;1.30;;
35592;SDS011;64447;52.140;5.602;2023-04-03T14:04:29;2.17;;;1.23;;
35592;SDS011;64447;52.140;5.602;2023-04-03T14:06:56;4.88;;;1.45;;
35592;SDS011;64447;52.140;5.602;2023-04-03T14:09:23;1.83;;;1.25;;
35592;SDS011;64447;52.140;5.602;2023-04-03T14:11:55;2.55;;;1.20;;
35592;SDS011;64447;52.140;5.602;2023-04-03T14:14:26;2.80;;;1.20;;
35592;SDS011;64447;52.140;5.602;2023-04-03T14:16:56;1.85;;;1.40;;
35592;SDS011;64447;52.140;5.602;2023-04-03T14:19:25;2.83;;;1.40;;
35592;SDS011;64447;52.140;5.602;2023-04-03T14:21:53;3.85;;;1.60;;
35592;SDS011;64447;52.140;5.602;2023-04-03T14:24:21;2.35;;;1.40;;
35592;SDS011;64447;52.140;5.602;2023-04-03T14:26:49;4.15;;;1.73;;
35592;SDS011;64447;52.140;5.602;2023-04-03T14:29:16;3.75;;;1.80;;
35592;SDS011;64447;52.140;5.602;2023-04-03T14:31:43;4.10;;;2.03;;
35592;SDS011;64447;52.140;5.602;2023-04-03T14:34:11;4.03;;;1.70;;
35592;SDS011;64447;52.140;5.602;2023-04-03T14:36:37;4.70;;;2.03;;
35592;SDS011;64447;52.140;5.602;2023-04-03T14:39:04;3.85;;;1.80;;
35592;SDS011;64447;52.140;5.602;2023-04-03T14:41:32;4.80;;;1.42;;
35592;SDS011;64447;52.140;5.602;2023-04-03T14:43:58;3.75;;;1.80;;
35592;SDS011;64447;52.140;5.602;2023-04-03T14:46:25;3.55;;;1.48;;
35592;SDS011;64447;52.140;5.602;2023-04-03T14:48:57;3.65;;;1.60;;
35592;SDS011;64447;52.140;5.602;2023-04-03T14:51:23;5.35;;;2.00;;
35592;SDS011;64447;52.140;5.602;2023-04-03T14:53:49;4.25;;;1.70;;
35592;SDS011;64447;52.140;5.602;2023-04-03T14:56:19;2.80;;;1.60;;
35592;SDS011;64447;52.140;5.602;2023-04-03T14:58:52;5.28;;;1.50;;
35592;SDS011;64447;52.140;5.602;2023-04-03T15:01:21;3.70;;;1.70;;
35592;SDS011;64447;52.140;5.602;2023-04-03T15:03:47;2.85;;;1.48;;
35592;SDS011;64447;52.140;5.602;2023-04-03T15:06:13;2.83;;;1.25;;
35592;SDS011;64447;52.140;5.602;2023-04-03T15:08:39;3.55;;;1.75;;
35592;SDS011;64447;52.140;5.602;2023-04-03T15:11:06;3.22;;;1.40;;
35592;SDS011;64447;52.140;5.602;2023-04-03T15:13:32;2.60;;;1.50;;
35592;SDS011;64447;52.140;5.602;2023-04-03T15:15:58;4.22;;;1.83;;
35592;SDS011;64447;52.140;5.602;2023-04-03T15:18:24;4.13;;;1.77;;
35592;SDS011;64447;52.140;5.602;2023-04-03T15:24:13;4.90;;;1.95;;
35592;SDS011;64447;52.140;5.602;2023-04-03T15:26:39;3.33;;;1.85;;
35592;SDS011;64447;52.140;5.602;2023-04-03T15:29:04;4.65;;;1.85;;
35592;SDS011;64447;52.140;5.602;2023-04-03T15:31:30;4.22;;;2.10;;
35592;SDS011;64447;52.140;5.602;2023-04-03T15:33:57;5.75;;;1.77;;
35592;SDS011;64447;52.140;5.602;2023-04-03T15:36:22;2.80;;;1.83;;
35592;SDS011;64447;52.140;5.602;2023-04-03T15:38:48;4.78;;;1.42;;
35592;SDS011;64447;52.140;5.602;2023-04-03T15:41:13;5.50;;;1.77;;
35592;SDS011;64447;52.140;5.602;2023-04-03T15:43:39;5.05;;;2.17;;
35592;SDS011;64447;52.140;5.602;2023-04-03T15:46:05;6.07;;;1.90;;
35592;SDS011;64447;52.140;5.602;2023-04-03T15:48:30;5.43;;;1.95;;
35592;SDS011;64447;52.140;5.602;2023-04-03T15:54:18;2.90;;;1.88;;
35592;SDS011;64447;52.140;5.602;2023-04-03T15:56:44;4.43;;;2.00;;
35592;SDS011;64447;52.140;5.602;2023-04-03T15:59:10;3.83;;;1.63;;
35592;SDS011;64447;52.140;5.602;2023-04-03T16:01:36;6.05;;;1.60;;
35592;SDS011;64447;52.140;5.602;2023-04-03T16:04:03;2.40;;;1.70;;
35592;SDS011;64447;52.140;5.602;2023-04-03T16:06:30;6.53;;;1.83;;
35592;SDS011;64447;52.140;5.602;2023-04-03T16:08:58;5.00;;;1.70;;
35592;SDS011;64447;52.140;5.602;2023-04-03T16:11:24;3.55;;;1.80;;
35592;SDS011;64447;52.140;5.602;2023-04-03T16:13:50;3.83;;;1.60;;
35592;SDS011;64447;52.140;5.602;2023-04-03T16:16:16;3.03;;;1.48;;
35592;SDS011;64447;52.140;5.602;2023-04-03T16:18:42;6.35;;;2.42;;
35592;SDS011;64447;52.140;5.602;2023-04-03T16:24:29;3.15;;;1.63;;
35592;SDS011;64447;52.140;5.602;2023-04-03T16:26:57;4.10;;;1.63;;
35592;SDS011;64447;52.140;5.602;2023-04-03T16:29:23;3.40;;;1.80;;
35592;SDS011;64447;52.140;5.602;2023-04-03T16:31:48;3.80;;;2.00;;
35592;SDS011;64447;52.140;5.602;2023-04-03T16:34:14;4.05;;;1.63;;
35592;SDS011;64447;52.140;5.602;2023-04-03T16:36:41;2.97;;;1.70;;
35592;SDS011;64447;52.140;5.602;2023-04-03T16:39:07;4.35;;;1.80;;
35592;SDS011;64447;52.140;5.602;2023-04-03T16:41:34;5.22;;;1.90;;
35592;SDS011;64447;52.140;5.602;2023-04-03T16:44:00;4.07;;;1.75;;
35592;SDS011;64447;52.140;5.602;2023-04-03T16:46:26;5.18;;;1.80;;
35592;SDS011;64447;52.140;5.602;2023-04-03T16:48:51;3.97;;;1.77;;
35592;SDS011;64447;52.140;5.602;2023-04-03T16:54:39;3.67;;;1.70;;
35592;SDS011;64447;52.140;5.602;2023-04-03T16:57:04;4.03;;;1.77;;
35592;SDS011;64447;52.140;5.602;2023-04-03T16:59:30;2.75;;;1.42;;
35592;SDS011;64447;52.140;5.602;2023-04-03T17:01:56;3.75;;;2.05;;
35592;SDS011;64447;52.140;5.602;2023-04-03T17:04:21;4.32;;;2.20;;
35592;SDS011;64447;52.140;5.602;2023-04-03T17:10:09;3.70;;;2.10;;
35592;SDS011;64447;52.140;5.602;2023-04-03T17:12:36;2.67;;;1.73;;
35592;SDS011;64447;52.140;5.602;2023-04-03T17:15:02;2.92;;;1.83;;
35592;SDS011;64447;52.140;5.602;2023-04-03T17:17:28;2.83;;;1.33;;
35592;SDS011;64447;52.140;5.602;2023-04-03T17:19:53;2.85;;;1.63;;
35592;SDS011;64447;52.140;5.602;2023-04-03T17:22:20;4.13;;;1.67;;
35592;SDS011;64447;52.140;5.602;2023-04-03T17:24:46;2.75;;;1.60;;
35592;SDS011;64447;52.140;5.602;2023-04-03T17:27:11;2.40;;;1.42;;
35592;SDS011;64447;52.140;5.602;2023-04-03T17:29:37;2.42;;;1.60;;